createdAt,value
2023-04-20T00:02:04.353Z,100065.09
2023-04-20T00:07:09.151Z,100060.66
2023-04-20T00:12:12.354Z,100052.81
2023-04-20T00:17:15.620Z,100048.34
2023-04-20T00:22:20.310Z,100039.94
2023-04-20T00:27:23.647Z,100040.25
2023-04-20T00:32:28.716Z,100030.16
2023-04-20T00:37:33.352Z,100028.13
2023-04-20T00:42:36.705Z,100021.84
2023-04-20T00:47:40.177Z,100026.31
2023-04-20T00:52:45.753Z,100023.72
2023-04-20T00:57:49.136Z,100024.69
2023-04-20T01:02:52.558Z,100011.22
2023-04-20T01:07:57.395Z,100019.63
2023-04-20T01:13:00.425Z,100009.66
2023-04-20T01:18:04.174Z,100011.41
2023-04-20T01:23:08.882Z,100005.59
2023-04-20T01:28:14.577Z,100004.19
2023-04-20T01:33:17.827Z,100001.75
2023-04-20T01:38:23.521Z,100008.69
2023-04-20T01:43:26.812Z,99998.34
2023-04-20T01:48:30.126Z,99998.34
2023-04-20T01:53:34.822Z,99987.22
2023-04-20T01:58:38.234Z,99972.97
2023-04-20T02:03:41.593Z,99969.13
2023-04-20T02:08:46.384Z,99965.84
2023-04-20T02:13:49.650Z,99972.41
2023-04-20T02:18:52.923Z,99978.91
2023-04-20T02:23:57.634Z,99973.16
2023-04-20T02:29:00.880Z,99982.63
2023-04-20T02:34:06.352Z,99969.56
2023-04-20T02:39:11.431Z,99974.88
2023-04-20T02:44:14.592Z,99978.81
2023-04-20T02:49:18.244Z,99978.38
2023-04-20T02:54:23.133Z,99980.94
2023-04-20T02:59:28.049Z,99985.06
2023-04-20T03:04:32.313Z,99989.66
2023-04-20T03:09:37.439Z,99988.41
2023-04-20T03:14:40.632Z,99991.56
2023-04-20T03:19:43.923Z,99990.41
2023-04-20T03:24:50.785Z,99976.78
2023-04-20T03:29:56.283Z,99972.47
2023-04-20T03:34:59.530Z,99960.72
2023-04-20T03:40:04.225Z,99966.72
2023-04-20T03:45:08.488Z,99962.97
2023-04-20T03:50:12.306Z,99956.25
2023-04-20T03:55:16.927Z,99952.06
2023-04-20T04:00:20.329Z,99950.13
2023-04-20T04:05:23.747Z,99943.75
2023-04-20T04:10:28.632Z,99947.09
2023-04-20T04:15:32.188Z,99950.88
2023-04-20T04:20:35.639Z,99955.66
2023-04-20T04:25:40.961Z,99962.47
2023-04-20T04:30:44.296Z,99954.94
2023-04-20T04:35:48.814Z,99952.78
2023-04-20T04:40:54.146Z,99955.44
2023-04-20T04:45:58.749Z,99954.94
2023-04-20T04:51:02.034Z,99965.25
2023-04-20T04:56:07.939Z,99971.78
2023-04-20T05:01:11.663Z,99988.38
2023-04-20T05:06:14.838Z,99988.38
2023-04-20T05:11:19.531Z,99990.88
2023-04-20T05:16:22.915Z,99982.88
2023-04-20T05:21:26.460Z,99991.13
2023-04-20T05:26:31.243Z,99991.41
2023-04-20T05:31:34.495Z,100010.34
2023-04-20T05:36:38.116Z,100006.72
2023-04-20T05:41:42.787Z,100003.84
2023-04-20T05:46:46.056Z,100014.88
2023-04-20T05:51:49.336Z,100005.78
2023-04-20T05:56:54.172Z,100003.56
2023-04-20T06:01:57.664Z,100005.34
2023-04-20T06:07:01.486Z,99995.41
2023-04-20T06:12:06.594Z,99986.34
2023-04-20T06:17:09.840Z,99986.34
2023-04-20T06:22:13.203Z,99990.50
2023-04-20T06:27:17.890Z,99993.50
2023-04-20T06:32:21.139Z,99999.47
2023-04-20T06:37:24.419Z,100002.78
2023-04-20T06:42:29.009Z,99990.47
2023-04-20T06:47:33.795Z,99987.63
2023-04-20T06:52:38.536Z,99992.34
2023-04-20T06:57:44.072Z,99989.16
2023-04-20T07:02:48.945Z,99989.25
2023-04-20T07:07:52.537Z,99996.56
2023-04-20T07:12:57.218Z,99997.22
2023-04-20T07:18:00.930Z,99998.22
2023-04-20T07:23:04.235Z,100002.31
2023-04-20T07:28:08.910Z,100000.16
2023-04-20T07:33:12.515Z,99998.41
2023-04-20T07:38:17.081Z,99994.78
2023-04-20T07:43:21.696Z,99996.00
2023-04-20T07:48:24.924Z,100002.81
2023-04-20T07:53:28.710Z,100008.78
2023-04-20T07:58:33.412Z,100007.63
2023-04-20T08:03:37.022Z,100007.47
2023-04-20T08:08:40.356Z,100003.13
2023-04-20T08:13:45.039Z,99994.91
2023-04-20T08:18:48.282Z,99993.88
2023-04-20T08:23:51.991Z,100002.81
2023-04-20T08:28:56.713Z,99993.19
2023-04-20T08:33:59.692Z,99997.31
2023-04-20T08:39:08.212Z,99998.47
2023-04-20T08:44:12.975Z,100005.06
2023-04-20T08:49:16.778Z,99985.06
2023-04-20T08:54:20.170Z,99986.84
2023-04-20T08:59:24.881Z,99992.03
2023-04-20T09:04:28.760Z,99982.97
2023-04-20T09:09:32.134Z,99978.88
2023-04-20T09:14:46.011Z,99970.94
2023-04-20T09:19:55.109Z,99958.47
2023-04-20T09:24:58.356Z,99967.00
2023-04-20T09:30:04.324Z,99961.88
2023-04-20T09:35:08.979Z,99960.34
2023-04-20T09:40:13.204Z,99951.06
2023-04-20T09:45:18.030Z,99943.00
2023-04-20T09:50:29.310Z,99943.34
2023-04-20T09:55:35.614Z,99946.50
2023-04-20T10:00:40.300Z,99932.69
2023-04-20T10:05:43.556Z,99934.56
2023-04-20T10:10:48.806Z,99925.50
2023-04-20T10:15:53.579Z,99920.56
2023-04-20T10:21:06.832Z,99909.25
2023-04-20T10:26:10.061Z,99898.50
2023-04-20T10:31:17.088Z,99901.34
2023-04-20T10:36:31.191Z,99890.91
2023-04-20T10:41:34.508Z,99883.13
2023-04-20T10:46:39.107Z,99884.34
2023-04-20T10:51:48.461Z,99872.47
2023-04-20T10:56:52.860Z,99870.47
2023-04-20T11:01:59.719Z,99864.06
2023-04-20T11:07:07.222Z,99851.03
2023-04-20T11:12:12.241Z,99857.53
2023-04-20T11:17:16.960Z,99856.25
2023-04-20T11:22:23.983Z,99850.66
2023-04-20T11:27:27.399Z,99854.28
2023-04-20T11:32:32.016Z,99851.72
2023-04-20T11:37:35.927Z,99855.00
2023-04-20T11:42:39.077Z,99857.69
2023-04-20T11:47:43.816Z,99855.75
2023-04-20T11:52:46.978Z,99844.53
2023-04-20T11:57:50.212Z,99840.13
2023-04-20T12:02:54.861Z,99838.19
2023-04-20T12:07:58.052Z,99843.03
2023-04-20T12:13:01.345Z,99841.19
2023-04-20T12:18:06.232Z,99836.16
2023-04-20T12:23:09.609Z,99825.38
2023-04-20T12:28:12.892Z,99828.16
2023-04-20T12:33:17.530Z,99825.00
2023-04-20T12:38:20.778Z,99811.84
2023-04-20T12:43:24.009Z,99822.81
2023-04-20T12:48:28.677Z,99805.94
2023-04-20T12:53:31.970Z,99805.38
2023-04-20T12:58:35.241Z,99802.31
2023-04-20T13:03:40.441Z,99800.06
2023-04-20T13:08:43.891Z,99790.25
2023-04-20T13:13:47.329Z,99793.06
2023-04-20T13:18:52.025Z,99785.66
2023-04-20T13:23:56.843Z,99799.34
2023-04-20T13:29:00.420Z,99788.63
2023-04-20T13:34:05.094Z,99790.00
2023-04-20T13:39:09.004Z,99790.34
2023-04-20T13:44:16.229Z,99780.69
2023-04-20T13:49:22.987Z,99772.88
2023-04-20T13:54:26.250Z,99775.69
2023-04-20T13:59:29.424Z,99768.63
2023-04-20T14:04:34.133Z,99769.69
2023-04-20T14:09:37.420Z,99768.56
2023-04-20T14:14:41.190Z,99766.84
2023-04-20T14:19:45.947Z,99747.50
2023-04-20T14:24:49.570Z,99753.84
2023-04-20T14:29:52.810Z,99749.44
2023-04-20T14:34:57.453Z,99742.38
2023-04-20T14:40:00.681Z,99746.72
2023-04-20T14:45:03.989Z,99743.06
2023-04-20T14:50:10.315Z,99727.97
2023-04-20T14:55:13.582Z,99718.75
2023-04-20T15:00:18.133Z,99716.00
2023-04-20T15:05:22.956Z,99715.09
2023-04-20T15:10:26.405Z,99702.41
2023-04-20T15:15:41.263Z,99698.28
2023-04-20T15:20:53.742Z,99691.75
2023-04-20T15:25:57.007Z,99688.53
2023-04-20T15:31:00.357Z,99680.13
2023-04-20T15:36:05.280Z,99666.25
2023-04-20T15:41:09.145Z,99668.44
2023-04-20T15:46:12.461Z,99670.59
2023-04-20T15:51:17.829Z,99663.97
2023-04-20T15:56:22.834Z,99662.28
2023-04-20T16:01:26.125Z,99662.31
2023-04-20T16:06:31.860Z,99655.16
2023-04-20T16:11:35.203Z,99654.03
2023-04-20T16:16:38.577Z,99660.94
2023-04-20T16:21:43.207Z,99655.28
2023-04-20T16:26:46.625Z,99664.38
2023-04-20T16:31:49.962Z,99668.97
2023-04-20T16:36:54.877Z,99667.63
2023-04-20T16:41:58.776Z,99670.00
2023-04-20T16:47:02.290Z,99671.06
2023-04-20T16:52:07.098Z,99671.19
2023-04-20T16:57:10.292Z,99682.09
2023-04-20T17:02:13.586Z,99680.09
2023-04-20T17:07:18.250Z,99673.22
2023-04-20T17:12:21.508Z,99678.78
2023-04-20T17:17:26.271Z,99668.94
2023-04-20T17:22:31.007Z,99667.94
2023-04-20T17:27:34.334Z,99674.59
2023-04-20T17:32:37.623Z,99674.31
2023-04-20T17:37:42.469Z,99673.59
2023-04-20T17:42:46.163Z,99677.94
2023-04-20T17:47:49.389Z,99684.97
2023-04-20T17:52:54.031Z,99687.22
2023-04-20T17:57:57.270Z,99683.22
2023-04-20T18:03:01.085Z,99688.72
2023-04-20T18:08:06.323Z,99686.31
2023-04-20T18:13:09.540Z,99689.41
2023-04-20T18:18:12.726Z,99685.84
2023-04-20T18:23:17.647Z,99692.84
2023-04-20T18:28:21.381Z,99691.16
2023-04-20T18:33:24.639Z,99684.91
2023-04-20T18:38:29.228Z,99692.91
2023-04-20T18:43:32.531Z,99681.84
2023-04-20T18:48:35.945Z,99680.06
2023-04-20T18:53:40.643Z,99687.47
2023-04-20T18:58:43.533Z,99687.72
2023-04-20T19:03:48.048Z,99696.00
2023-04-20T19:08:52.957Z,99686.34
2023-04-20T19:13:55.970Z,99697.22
2023-04-20T19:18:59.536Z,99690.81
2023-04-20T19:24:04.158Z,99698.59
2023-04-20T19:29:07.096Z,99690.81
2023-04-20T19:34:13.588Z,99687.91
2023-04-20T19:39:18.323Z,99693.34
2023-04-20T19:44:21.363Z,99703.41
2023-04-20T19:49:24.591Z,99704.38
2023-04-20T19:54:29.285Z,99717.34
2023-04-20T19:59:32.982Z,99710.06
2023-04-20T20:04:38.048Z,99709.34
2023-04-20T20:09:44.888Z,99725.94
2023-04-20T20:14:48.192Z,99722.03
2023-04-20T20:19:53.765Z,99720.34
2023-04-20T20:25:01.364Z,99730.38
2023-04-20T20:30:04.890Z,99735.94
2023-04-20T20:35:11.707Z,99744.84
2023-04-20T20:40:16.951Z,99749.44
2023-04-20T20:45:20.238Z,99750.59
2023-04-20T20:50:24.102Z,99745.56
2023-04-20T20:55:28.765Z,99747.97
2023-04-20T21:00:33.648Z,99751.53
2023-04-20T21:05:36.922Z,99756.81
2023-04-20T21:10:41.508Z,99755.53
2023-04-20T21:15:44.735Z,99753.56
2023-04-20T21:20:48.013Z,99761.59
2023-04-20T21:25:52.691Z,99763.88
2023-04-20T21:30:55.930Z,99760.66
2023-04-20T21:35:59.182Z,99761.28
2023-04-20T21:41:03.892Z,99761.88
2023-04-20T21:46:07.159Z,99759.09
2023-04-20T21:51:10.427Z,99758.34
2023-04-20T21:56:15.950Z,99749.53
2023-04-20T22:01:19.233Z,99752.72
2023-04-20T22:06:22.515Z,99748.78
2023-04-20T22:11:27.329Z,99743.28
2023-04-20T22:16:30.346Z,99745.50
2023-04-20T22:21:33.711Z,99736.28
2023-04-20T22:26:38.359Z,99721.22
2023-04-20T22:31:41.638Z,99728.53
2023-04-20T22:36:44.844Z,99725.34
2023-04-20T22:41:49.485Z,99718.97
2023-04-20T22:46:52.847Z,99713.03
2023-04-20T22:51:57.278Z,99702.09
2023-04-20T22:57:02.224Z,99707.94
2023-04-20T23:02:05.267Z,99700.41
2023-04-20T23:07:08.622Z,99697.56
2023-04-20T23:12:13.242Z,99692.34
2023-04-20T23:17:16.468Z,99683.66
2023-04-20T23:22:20.136Z,99672.75
2023-04-20T23:27:24.812Z,99674.75
2023-04-20T23:32:28.157Z,99669.84
2023-04-20T23:37:31.512Z,99669.53
2023-04-20T23:42:37.611Z,99667.81
2023-04-20T23:47:41.122Z,99663.06
2023-04-20T23:52:44.410Z,99664.06
2023-04-20T23:57:49.725Z,99664.09
